createdAt,value
2023-03-05T00:01:26.059Z,29.11
2023-03-05T00:03:52.408Z,30.17
2023-03-05T00:06:18.770Z,30.03
2023-03-05T00:08:45.063Z,30.27
2023-03-05T00:11:11.372Z,30.51
2023-03-05T00:13:37.704Z,30.74
2023-03-05T00:16:04.030Z,31.57
2023-03-05T00:18:30.395Z,31.33
2023-03-05T00:20:56.715Z,32.00
2023-03-05T00:23:23.006Z,32.14
2023-03-05T00:25:49.336Z,32.51
2023-03-05T00:28:15.647Z,32.92
2023-03-05T00:30:41.938Z,33.27
2023-03-05T00:33:08.237Z,34.21
2023-03-05T00:35:35.239Z,34.50
2023-03-05T00:38:02.320Z,35.41
2023-03-05T00:40:28.604Z,35.63
2023-03-05T00:42:54.945Z,35.59
2023-03-05T00:45:21.233Z,36.77
2023-03-05T00:47:47.580Z,37.08
2023-03-05T00:50:13.906Z,36.84
2023-03-05T00:52:40.214Z,36.59
2023-03-05T00:55:06.519Z,37.15
2023-03-05T00:57:32.835Z,37.37
2023-03-05T00:59:59.136Z,37.65
2023-03-05T01:02:25.407Z,37.45
2023-03-05T01:04:51.742Z,36.69
2023-03-05T01:07:18.132Z,38.25
2023-03-05T01:09:44.437Z,38.26
2023-03-05T01:12:10.732Z,38.15
2023-03-05T01:14:37.015Z,37.96
2023-03-05T01:17:03.315Z,37.81
2023-03-05T01:19:29.634Z,38.15
2023-03-05T01:21:55.928Z,38.35
2023-03-05T01:24:22.221Z,38.22
2023-03-05T01:26:48.515Z,39.26
2023-03-05T01:29:14.802Z,37.97
2023-03-05T01:31:41.125Z,38.63
2023-03-05T01:34:07.433Z,39.12
2023-03-05T01:36:33.722Z,40.14
2023-03-05T01:39:00.022Z,39.28
2023-03-05T01:41:26.330Z,39.20
2023-03-05T01:43:52.632Z,39.99
2023-03-05T01:46:18.948Z,40.31
2023-03-05T01:48:45.312Z,39.93
2023-03-05T01:51:11.601Z,40.01
2023-03-05T01:53:37.881Z,40.19
2023-03-05T01:56:04.238Z,40.38
2023-03-05T01:58:30.569Z,40.21
2023-03-05T02:00:56.899Z,40.42
2023-03-05T02:03:23.223Z,41.22
2023-03-05T02:05:49.517Z,41.31
2023-03-05T02:08:15.823Z,41.10
2023-03-05T02:10:42.157Z,40.37
2023-03-05T02:13:08.471Z,40.54
2023-03-05T02:15:34.764Z,40.23
2023-03-05T02:18:01.174Z,39.59
2023-03-05T02:20:27.474Z,40.80
2023-03-05T02:22:53.792Z,40.59
2023-03-05T02:25:20.118Z,40.38
2023-03-05T02:27:46.396Z,39.38
2023-03-05T02:30:12.697Z,40.80
2023-03-05T02:32:39.065Z,40.55
2023-03-05T02:35:05.414Z,40.35
2023-03-05T02:37:31.705Z,40.16
2023-03-05T02:39:58.020Z,41.34
2023-03-05T02:42:24.324Z,40.32
2023-03-05T02:44:50.613Z,39.01
2023-03-05T02:47:16.939Z,39.26
2023-03-05T02:49:43.222Z,40.15
2023-03-05T02:52:09.537Z,39.91
2023-03-05T02:54:35.839Z,38.79
2023-03-05T02:57:02.138Z,38.65
2023-03-05T02:59:28.424Z,38.79
2023-03-05T03:01:54.781Z,39.74
2023-03-05T03:04:21.091Z,40.12
2023-03-05T03:06:47.382Z,40.32
2023-03-05T03:09:13.688Z,39.95
2023-03-05T03:11:39.977Z,41.11
2023-03-05T03:14:06.258Z,40.62
2023-03-05T03:16:32.570Z,41.48
2023-03-05T03:18:58.877Z,41.41
2023-03-05T03:21:25.172Z,41.68
2023-03-05T03:23:51.489Z,41.01
2023-03-05T03:26:17.773Z,42.35
2023-03-05T03:28:44.067Z,41.61
2023-03-05T03:31:10.445Z,41.79
2023-03-05T03:33:36.772Z,43.07
2023-03-05T03:36:03.053Z,42.54
2023-03-05T03:38:29.370Z,42.54
2023-03-05T03:40:55.667Z,43.18
2023-03-05T03:43:21.964Z,42.96
2023-03-05T03:45:48.321Z,42.81
2023-03-05T03:48:14.652Z,42.26
2023-03-05T03:50:40.945Z,43.61
2023-03-05T03:53:07.275Z,43.15
2023-03-05T03:55:33.562Z,43.34
2023-03-05T03:57:59.862Z,42.98
2023-03-05T04:00:26.177Z,43.28
2023-03-05T04:02:52.498Z,43.40
2023-03-05T04:05:18.836Z,42.83
2023-03-05T04:07:45.183Z,42.49
2023-03-05T04:10:11.480Z,44.05
2023-03-05T04:12:37.770Z,43.07
2023-03-05T04:15:04.086Z,43.51
2023-03-05T04:17:30.395Z,43.48
2023-03-05T04:19:56.688Z,43.11
2023-03-05T04:22:23.008Z,43.57
2023-03-05T04:24:49.294Z,43.42
2023-03-05T04:27:15.575Z,42.08
2023-03-05T04:29:41.869Z,42.54
2023-03-05T04:32:08.213Z,42.95
2023-03-05T04:34:34.532Z,42.44
2023-03-05T04:37:00.853Z,43.20
2023-03-05T04:39:27.143Z,43.11
2023-03-05T04:41:53.427Z,42.71
2023-03-05T04:44:19.745Z,43.78
2023-03-05T04:46:46.135Z,42.83
2023-03-05T04:49:12.454Z,43.40
2023-03-05T04:51:38.767Z,43.31
2023-03-05T04:54:05.065Z,42.79
2023-03-05T04:56:31.359Z,43.28
2023-03-05T04:58:57.664Z,43.01
2023-03-05T05:01:24.070Z,42.82
2023-03-05T05:03:50.441Z,42.93
2023-03-05T05:06:16.749Z,42.90
2023-03-05T05:08:43.050Z,43.14
2023-03-05T05:11:09.346Z,43.08
2023-03-05T05:13:35.708Z,43.10
2023-03-05T05:16:02.091Z,42.78
2023-03-05T05:18:28.411Z,43.68
2023-03-05T05:20:54.740Z,44.17
2023-03-05T05:23:21.035Z,42.94
2023-03-05T05:25:47.336Z,41.14
2023-03-05T05:28:13.649Z,42.39
2023-03-05T05:30:39.953Z,42.31
2023-03-05T05:33:06.251Z,42.29
2023-03-05T05:35:32.603Z,42.66
2023-03-05T05:37:58.927Z,42.97
2023-03-05T05:40:25.223Z,41.93
2023-03-05T05:42:51.522Z,41.76
2023-03-05T05:45:17.896Z,41.75
2023-03-05T05:47:44.249Z,41.62
2023-03-05T05:50:10.571Z,41.58
2023-03-05T05:52:36.877Z,41.76
2023-03-05T05:55:03.181Z,41.82
2023-03-05T05:57:29.495Z,41.30
2023-03-05T05:59:55.780Z,41.84
2023-03-05T06:02:22.076Z,41.76
2023-03-05T06:04:48.405Z,41.62
2023-03-05T06:07:14.693Z,41.89
2023-03-05T06:09:40.979Z,40.59
2023-03-05T06:12:07.286Z,42.00
2023-03-05T06:14:33.591Z,41.25
2023-03-05T06:16:59.914Z,40.93
2023-03-05T06:19:26.257Z,41.46
2023-03-05T06:21:52.561Z,41.32
2023-03-05T06:24:18.841Z,41.43
2023-03-05T06:26:45.158Z,41.21
2023-03-05T06:29:11.443Z,41.20
2023-03-05T06:31:37.740Z,41.00
2023-03-05T06:34:04.055Z,41.14
2023-03-05T06:36:30.373Z,42.33
2023-03-05T06:38:56.678Z,42.55
2023-03-05T06:41:22.995Z,42.12
2023-03-05T06:43:49.273Z,42.11
2023-03-05T06:46:15.598Z,42.59
2023-03-05T06:48:41.924Z,42.13
2023-03-05T06:51:08.216Z,42.03
2023-03-05T06:53:34.509Z,41.66
2023-03-05T06:56:00.827Z,41.52
2023-03-05T06:58:27.110Z,41.38
2023-03-05T07:00:53.426Z,42.37
2023-03-05T07:03:19.775Z,42.24
2023-03-05T07:05:46.067Z,42.87
2023-03-05T07:08:12.377Z,42.17
2023-03-05T07:10:38.686Z,41.05
2023-03-05T07:13:04.990Z,41.22
2023-03-05T07:15:31.324Z,41.44
2023-03-05T07:17:57.674Z,41.77
2023-03-05T07:20:23.951Z,42.11
2023-03-05T07:22:50.253Z,42.70
2023-03-05T07:25:16.598Z,42.35
2023-03-05T07:27:42.897Z,42.49
2023-03-05T07:30:09.179Z,42.38
2023-03-05T07:32:35.638Z,41.53
2023-03-05T07:35:01.964Z,41.57
2023-03-05T07:37:28.282Z,42.58
2023-03-05T07:39:54.631Z,42.83
2023-03-05T07:42:28.070Z,40.64
2023-03-05T07:44:54.703Z,41.74
2023-03-05T07:47:21.001Z,42.72
2023-03-05T07:49:47.281Z,43.10
2023-03-05T07:52:13.596Z,42.71
2023-03-05T07:54:39.897Z,42.69
2023-03-05T07:57:06.200Z,42.18
2023-03-05T07:59:32.530Z,42.16
2023-03-05T08:01:58.813Z,42.37
2023-03-05T08:04:25.137Z,43.00
2023-03-05T08:06:51.483Z,42.54
2023-03-05T08:09:17.759Z,42.03
2023-03-05T08:11:44.058Z,42.23
2023-03-05T08:14:10.394Z,41.76
2023-03-05T08:16:36.716Z,41.57
2023-03-05T08:19:03.025Z,41.75
2023-03-05T08:21:29.406Z,42.01
2023-03-05T08:23:55.761Z,42.14
2023-03-05T08:26:22.055Z,42.05
2023-03-05T08:28:48.386Z,43.22
2023-03-05T08:31:14.718Z,42.80
2023-03-05T08:33:41.034Z,44.06
2023-03-05T08:36:07.348Z,43.04
2023-03-05T08:38:33.630Z,43.66
2023-03-05T08:40:59.940Z,42.26
2023-03-05T08:43:26.251Z,42.95
2023-03-05T08:45:52.554Z,42.45
2023-03-05T08:48:18.845Z,43.52
2023-03-05T08:50:45.158Z,42.90
2023-03-05T08:53:11.443Z,43.31
2023-03-05T08:55:37.732Z,42.50
2023-03-05T08:58:04.045Z,42.59
2023-03-05T09:00:30.350Z,43.04
2023-03-05T09:02:56.708Z,43.14
2023-03-05T09:05:23.054Z,43.23
2023-03-05T09:07:49.349Z,42.98
2023-03-05T09:10:15.658Z,43.64
2023-03-05T09:12:41.969Z,43.69
2023-03-05T09:15:08.270Z,42.78
2023-03-05T09:17:34.597Z,42.70
2023-03-05T09:20:00.904Z,43.60
2023-03-05T09:22:27.214Z,42.93
2023-03-05T09:24:53.502Z,43.45
2023-03-05T09:27:19.832Z,42.74
2023-03-05T09:29:46.120Z,42.81
2023-03-05T09:32:12.447Z,43.10
2023-03-05T09:34:38.832Z,42.15
2023-03-05T09:37:05.129Z,42.41
2023-03-05T09:39:31.425Z,42.02
2023-03-05T09:41:57.729Z,43.16
2023-03-05T09:44:24.017Z,42.15
2023-03-05T09:46:50.334Z,43.07
2023-03-05T09:49:16.656Z,42.56
2023-03-05T09:51:42.941Z,42.64
2023-03-05T09:54:09.233Z,42.28
2023-03-05T09:56:35.530Z,41.98
2023-03-05T09:59:01.816Z,42.69
2023-03-05T10:01:28.087Z,41.83
2023-03-05T10:03:54.498Z,42.13
2023-03-05T10:06:20.827Z,42.46
2023-03-05T10:08:47.114Z,42.45
2023-03-05T10:11:13.422Z,43.21
2023-03-05T10:13:39.722Z,42.65
2023-03-05T10:16:06.027Z,41.82
2023-03-05T10:18:32.320Z,41.59
2023-03-05T10:20:58.617Z,42.87
2023-03-05T10:23:24.926Z,44.16
2023-03-05T10:25:51.266Z,43.16
2023-03-05T10:28:17.568Z,43.68
2023-03-05T10:30:43.869Z,42.72
2023-03-05T10:33:10.174Z,42.48
2023-03-05T10:35:36.499Z,42.56
2023-03-05T10:38:02.816Z,43.07
2023-03-05T10:40:29.165Z,44.01
2023-03-05T10:42:55.463Z,43.51
2023-03-05T10:45:21.750Z,42.47
2023-03-05T10:47:48.048Z,43.42
2023-03-05T10:50:14.339Z,43.18
2023-03-05T10:52:40.647Z,43.97
2023-03-05T10:55:06.976Z,42.31
2023-03-05T10:57:33.271Z,43.12
2023-03-05T10:59:59.566Z,43.48
2023-03-05T11:02:25.979Z,42.79
2023-03-05T11:04:52.329Z,43.04
2023-03-05T11:07:18.615Z,43.47
2023-03-05T11:09:44.943Z,42.94
2023-03-05T11:12:11.235Z,42.64
2023-03-05T11:14:37.529Z,44.09
2023-03-05T11:17:03.836Z,43.80
2023-03-05T11:19:30.180Z,43.08
2023-03-05T11:21:57.961Z,43.56
2023-03-05T11:24:25.836Z,44.19
2023-03-05T11:26:52.124Z,43.47
2023-03-05T11:29:18.408Z,44.35
2023-03-05T11:31:44.722Z,44.53
2023-03-05T11:34:11.022Z,43.89
2023-03-05T11:36:37.365Z,43.02
2023-03-05T11:39:03.681Z,42.84
2023-03-05T11:41:29.989Z,42.71
2023-03-05T11:43:56.285Z,42.21
2023-03-05T11:46:22.717Z,42.85
2023-03-05T11:48:49.046Z,42.91
2023-03-05T11:51:15.350Z,42.84
2023-03-05T11:53:41.649Z,42.74
2023-03-05T11:56:07.945Z,43.65
2023-03-05T11:58:34.252Z,43.13
2023-03-05T12:01:00.581Z,43.75
2023-03-05T12:03:26.921Z,44.25
2023-03-05T12:05:53.237Z,43.49
2023-03-05T12:08:19.549Z,43.54
2023-03-05T12:10:45.843Z,42.85
2023-03-05T12:13:12.132Z,43.61
2023-03-05T12:15:38.429Z,42.43
2023-03-05T12:18:04.713Z,42.94
2023-03-05T12:20:31.084Z,42.89
2023-03-05T12:22:57.488Z,42.55
2023-03-05T12:25:23.783Z,42.38
2023-03-05T12:27:50.070Z,42.56
2023-03-05T12:30:16.395Z,43.83
2023-03-05T12:32:43.137Z,42.86
2023-03-05T12:35:09.545Z,42.93
2023-03-05T12:37:35.860Z,42.84
2023-03-05T12:40:02.152Z,43.18
2023-03-05T12:42:28.432Z,42.25
2023-03-05T12:44:54.761Z,44.03
2023-03-05T12:47:21.052Z,42.51
2023-03-05T12:49:47.353Z,42.19
2023-03-05T12:52:13.696Z,42.41
2023-03-05T12:54:39.976Z,42.39
2023-03-05T12:57:06.259Z,42.65
2023-03-05T12:59:32.555Z,42.58
2023-03-05T13:01:58.847Z,41.75
2023-03-05T13:04:25.142Z,42.19
2023-03-05T13:06:51.466Z,41.66
2023-03-05T13:09:17.770Z,42.05
2023-03-05T13:11:44.078Z,40.61
2023-03-05T13:14:10.395Z,40.77
2023-03-05T13:16:36.707Z,40.66
2023-03-05T13:19:03.067Z,41.32
2023-03-05T13:21:29.390Z,41.29
2023-03-05T13:23:55.683Z,41.45
2023-03-05T13:26:21.980Z,40.67
2023-03-05T13:28:48.293Z,40.70
2023-03-05T13:31:14.610Z,42.63
2023-03-05T13:33:40.906Z,42.73
2023-03-05T13:36:07.200Z,42.82
2023-03-05T13:38:33.592Z,42.73
2023-03-05T13:40:59.905Z,42.86
2023-03-05T13:43:26.220Z,43.72
2023-03-05T13:45:52.551Z,42.67
2023-03-05T13:48:19.047Z,42.73
2023-03-05T13:50:45.381Z,42.83
2023-03-05T13:53:11.668Z,42.87
2023-03-05T13:55:37.994Z,43.44
2023-03-05T13:58:04.328Z,42.84
2023-03-05T14:00:30.629Z,43.05
2023-03-05T14:02:59.461Z,42.67
2023-03-05T14:05:25.924Z,42.81
2023-03-05T14:07:52.220Z,42.97
2023-03-05T14:10:18.824Z,42.89
2023-03-05T14:12:45.146Z,43.23
2023-03-05T14:15:11.434Z,42.60
2023-03-05T14:17:37.727Z,43.07
2023-03-05T14:20:04.033Z,42.75
2023-03-05T14:22:30.327Z,42.15
2023-03-05T14:24:56.619Z,41.96
2023-03-05T14:27:22.925Z,43.44
2023-03-05T14:29:49.226Z,42.95
2023-03-05T14:32:15.528Z,42.76
2023-03-05T14:34:41.841Z,42.10
2023-03-05T14:37:08.143Z,42.69
2023-03-05T14:39:34.437Z,42.61
2023-03-05T14:42:00.742Z,43.15
2023-03-05T14:44:27.053Z,42.84
2023-03-05T14:46:53.346Z,42.61
2023-03-05T14:49:19.649Z,42.32
2023-03-05T14:51:45.945Z,42.00
2023-03-05T14:54:12.253Z,41.88
2023-03-05T14:56:38.565Z,42.97
2023-03-05T14:59:04.859Z,42.86
2023-03-05T15:01:31.178Z,41.19
2023-03-05T15:03:57.541Z,41.70
2023-03-05T15:06:26.044Z,41.54
2023-03-05T15:08:52.876Z,42.92
2023-03-05T15:11:19.179Z,42.30
2023-03-05T15:13:45.470Z,41.96
2023-03-05T15:16:11.787Z,42.37
2023-03-05T15:18:38.136Z,42.69
2023-03-05T15:21:04.422Z,41.94
2023-03-05T15:23:30.705Z,42.69
2023-03-05T15:25:57.026Z,42.13
2023-03-05T15:28:23.313Z,42.29
2023-03-05T15:30:49.640Z,42.96
2023-03-05T15:33:15.949Z,42.81
2023-03-05T15:35:42.267Z,43.36
2023-03-05T15:38:08.677Z,42.86
2023-03-05T15:40:34.986Z,43.10
2023-03-05T15:43:01.287Z,42.33
2023-03-05T15:45:27.594Z,42.92
2023-03-05T15:47:53.899Z,42.84
2023-03-05T15:50:20.201Z,41.84
2023-03-05T15:52:46.480Z,41.85
2023-03-05T15:55:12.791Z,41.66
2023-03-05T15:57:39.093Z,41.48
2023-03-05T16:00:05.494Z,42.31
2023-03-05T16:02:31.810Z,42.05
2023-03-05T16:04:58.094Z,42.37
2023-03-05T16:07:24.384Z,42.40
2023-03-05T16:09:50.759Z,41.93
2023-03-05T16:12:17.056Z,42.50
2023-03-05T16:14:43.339Z,41.76
2023-03-05T16:17:09.668Z,42.15
2023-03-05T16:19:35.960Z,40.55
2023-03-05T16:22:02.261Z,40.88
2023-03-05T16:24:28.574Z,41.52
2023-03-05T16:26:54.878Z,42.00
2023-03-05T16:29:21.177Z,42.43
2023-03-05T16:31:47.546Z,42.28
2023-03-05T16:34:13.946Z,42.99
2023-03-05T16:36:40.245Z,41.63
2023-03-05T16:39:06.539Z,42.72
2023-03-05T16:41:32.832Z,42.02
2023-03-05T16:43:59.136Z,42.57
2023-03-05T16:46:25.469Z,42.33
2023-03-05T16:48:51.753Z,41.87
2023-03-05T16:51:19.878Z,41.45
2023-03-05T16:53:46.285Z,41.03
2023-03-05T16:56:12.580Z,41.20
2023-03-05T16:58:39.092Z,40.95
2023-03-05T17:01:05.458Z,39.13
2023-03-05T17:03:31.790Z,40.79
2023-03-05T17:05:58.099Z,40.92
2023-03-05T17:08:24.423Z,40.91
2023-03-05T17:10:50.718Z,41.06
2023-03-05T17:13:17.002Z,41.33
2023-03-05T17:18:14.632Z,40.71
2023-03-05T17:20:40.917Z,42.41
2023-03-05T17:23:07.231Z,40.59
2023-03-05T17:25:33.527Z,40.71
2023-03-05T17:27:59.818Z,41.04
2023-03-05T17:30:26.121Z,40.78
2023-03-05T17:32:52.431Z,38.76
2023-03-05T17:35:18.753Z,39.16
2023-03-05T17:37:45.124Z,40.26
2023-03-05T17:40:11.407Z,40.24
2023-03-05T17:42:37.699Z,39.94
2023-03-05T17:45:03.996Z,39.30
2023-03-05T17:47:30.306Z,38.27
2023-03-05T17:49:56.604Z,38.74
2023-03-05T17:52:22.906Z,41.98
2023-03-05T17:54:49.207Z,44.64
2023-03-05T17:57:15.498Z,41.70
2023-03-05T17:59:43.719Z,38.83
2023-03-05T18:02:10.891Z,38.93
2023-03-05T18:04:37.270Z,38.77
2023-03-05T18:07:03.619Z,37.28
2023-03-05T18:09:29.906Z,36.03
2023-03-05T18:11:56.212Z,38.63
2023-03-05T18:14:22.541Z,37.92
2023-03-05T18:16:48.873Z,35.41
2023-03-05T18:19:15.182Z,35.21
2023-03-05T18:21:41.525Z,35.08
2023-03-05T18:24:07.813Z,34.17
2023-03-05T18:26:34.091Z,33.56
2023-03-05T18:29:00.416Z,33.65
2023-03-05T18:31:26.712Z,33.54
2023-03-05T18:33:53.000Z,34.90
2023-03-05T18:36:19.305Z,36.18
2023-03-05T18:38:45.587Z,38.57
2023-03-05T18:41:11.881Z,37.07
2023-03-05T18:43:38.192Z,36.18
2023-03-05T18:46:04.522Z,33.54
2023-03-05T18:48:30.861Z,32.13
2023-03-05T18:50:57.179Z,30.98
2023-03-05T18:53:23.472Z,31.40
2023-03-05T18:55:51.488Z,31.77
2023-03-05T18:58:17.943Z,31.48
2023-03-05T19:00:44.232Z,32.23
2023-03-05T19:03:10.522Z,32.73
2023-03-05T19:05:36.841Z,32.85
2023-03-05T19:08:03.128Z,32.93
2023-03-05T19:10:29.424Z,33.50
2023-03-05T19:12:55.837Z,31.35
2023-03-05T19:15:22.220Z,31.62
2023-03-05T19:17:48.766Z,32.80
2023-03-05T19:20:15.149Z,33.01
2023-03-05T19:22:41.570Z,31.86
2023-03-05T19:25:07.870Z,32.54
2023-03-05T19:27:34.228Z,33.25
2023-03-05T19:30:00.519Z,32.47
2023-03-05T19:32:26.847Z,33.67
2023-03-05T19:34:53.604Z,33.13
2023-03-05T19:37:19.896Z,30.96
2023-03-05T19:39:46.176Z,29.88
2023-03-05T19:42:12.512Z,28.71
2023-03-05T19:44:38.812Z,27.12
2023-03-05T19:47:05.094Z,25.48
2023-03-05T19:49:31.520Z,26.08
2023-03-05T19:51:57.918Z,27.91
2023-03-05T19:54:24.206Z,25.13
2023-03-05T19:56:51.854Z,22.45
2023-03-05T19:59:19.821Z,20.94
2023-03-05T20:01:46.153Z,19.32
2023-03-05T20:04:12.482Z,18.35
2023-03-05T20:06:39.141Z,18.14
2023-03-05T20:09:07.920Z,18.13
2023-03-05T20:11:34.416Z,19.11
2023-03-05T20:14:00.710Z,18.67
2023-03-05T20:16:27.289Z,17.60
2023-03-05T20:18:53.605Z,17.59
2023-03-05T20:21:19.892Z,17.90
2023-03-05T20:23:46.207Z,17.84
2023-03-05T20:26:12.539Z,17.74
2023-03-05T20:28:39.109Z,18.10
2023-03-05T20:31:05.791Z,18.58
2023-03-05T20:33:32.247Z,19.88
2023-03-05T20:35:58.571Z,20.24
2023-03-05T20:38:24.860Z,21.07
2023-03-05T20:40:51.156Z,20.03
2023-03-05T20:43:17.454Z,18.91
2023-03-05T20:45:43.787Z,20.00
2023-03-05T20:48:10.082Z,20.00
2023-03-05T20:50:36.369Z,19.64
2023-03-05T20:53:02.655Z,18.41
2023-03-05T20:55:28.952Z,19.15
2023-03-05T20:57:55.339Z,19.06
2023-03-05T21:00:21.635Z,19.57
2023-03-05T21:02:47.938Z,18.93
2023-03-05T21:05:14.233Z,18.26
2023-03-05T21:07:40.527Z,18.69
2023-03-05T21:10:06.836Z,19.73
2023-03-05T21:12:33.134Z,19.40
2023-03-05T21:14:59.421Z,19.65
2023-03-05T21:17:25.724Z,19.34
2023-03-05T21:19:52.013Z,21.13
2023-03-05T21:22:18.288Z,21.36
2023-03-05T21:24:44.604Z,21.29
2023-03-05T21:27:10.902Z,21.71
2023-03-05T21:29:37.203Z,21.50
2023-03-05T21:32:03.616Z,21.06
2023-03-05T21:34:29.982Z,21.02
2023-03-05T21:36:56.257Z,21.54
2023-03-05T21:39:22.599Z,21.67
2023-03-05T21:41:48.890Z,21.91
2023-03-05T21:44:15.181Z,22.37
2023-03-05T21:46:41.503Z,23.38
2023-03-05T21:49:07.791Z,24.11
2023-03-05T21:51:34.139Z,22.39
2023-03-05T21:54:00.453Z,21.11
2023-03-05T21:56:26.732Z,20.98
2023-03-05T21:58:53.011Z,21.45
2023-03-05T22:01:19.492Z,20.09
2023-03-05T22:03:45.917Z,20.48
2023-03-05T22:06:12.241Z,20.73
2023-03-05T22:08:38.572Z,20.83
2023-03-05T22:11:04.870Z,21.02
2023-03-05T22:13:31.162Z,21.75
2023-03-05T22:15:57.486Z,21.86
2023-03-05T22:18:23.896Z,22.15
2023-03-05T22:20:50.209Z,21.83
2023-03-05T22:23:16.516Z,21.58
2023-03-05T22:25:42.804Z,20.78
2023-03-05T22:28:09.097Z,21.60
2023-03-05T22:30:35.415Z,20.63
2023-03-05T22:33:01.720Z,21.20
2023-03-05T22:35:28.036Z,20.86
2023-03-05T22:37:54.410Z,20.86
2023-03-05T22:40:20.704Z,20.95
2023-03-05T22:42:46.999Z,21.52
2023-03-05T22:45:13.355Z,20.68
2023-03-05T22:47:39.648Z,21.06
2023-03-05T22:50:05.941Z,21.51
2023-03-05T22:52:32.240Z,21.34
2023-03-05T22:54:58.538Z,21.50
2023-03-05T22:57:24.953Z,21.37
2023-03-05T22:59:51.261Z,22.03
2023-03-05T23:02:17.571Z,20.69
2023-03-05T23:04:43.864Z,21.37
2023-03-05T23:07:10.284Z,21.91
2023-03-05T23:09:36.583Z,20.91
2023-03-05T23:12:02.882Z,21.27
2023-03-05T23:14:29.197Z,21.39
2023-03-05T23:16:55.501Z,21.24
2023-03-05T23:19:21.791Z,21.49
2023-03-05T23:21:48.105Z,21.46
2023-03-05T23:24:14.391Z,20.92
2023-03-05T23:26:40.685Z,20.84
2023-03-05T23:29:07.131Z,20.72
2023-03-05T23:31:33.473Z,20.95
2023-03-05T23:33:59.779Z,20.59
2023-03-05T23:36:26.093Z,20.49
2023-03-05T23:38:52.388Z,21.12
2023-03-05T23:41:18.685Z,20.44
2023-03-05T23:43:44.990Z,21.30
2023-03-05T23:46:11.318Z,21.10
2023-03-05T23:48:37.627Z,21.23
2023-03-05T23:51:03.970Z,21.31
2023-03-05T23:53:30.266Z,20.34
2023-03-05T23:55:56.574Z,20.76
2023-03-05T23:58:22.892Z,21.02
